Time,TemperatureF,DewpointF,PressureIn,WindDirection,WindDirectionDegrees,WindSpeedMPH,WindSpeedGustMPH,Humidity,HourlyPrecipIn,Conditions,Clouds,dailyrainin,SoftwareType,DateUTC
2013-03-11 00:00:00,55.8,44.5,30.07,ENE,76,3.2,3.2,57,0.00,,,0.00,dv,2013-03-11 04:00:00,
2013-03-11 00:05:00,55.7,44.4,30.07,East,79,4.8,4.8,57,0.00,,,0.00,dv,2013-03-11 04:05:00,
2013-03-11 00:10:00,55.7,44.4,30.07,East,79,1.6,1.6,57,0.00,,,0.00,dv,2013-03-11 04:10:00,
2013-03-11 00:15:00,55.6,44.7,30.07,East,79,1.6,1.6,58,0.00,,,0.00,dv,2013-03-11 04:15:00,
2013-03-11 00:20:00,55.5,44.6,30.07,SE,137,3.2,3.2,58,0.00,,,0.00,dv,2013-03-11 04:20:00,
2013-03-11 00:25:00,55.4,44.5,30.07,ENE,75,3.2,3.2,58,0.00,,,0.00,dv,2013-03-11 04:25:00,
2013-03-11 00:30:00,55.2,44.6,30.07,ENE,75,1.6,1.6,59,0.00,,,0.00,dv,2013-03-11 04:30:00,
2013-03-11 00:35:00,55.0,44.4,30.06,ENE,75,1.6,1.6,59,0.00,,,0.00,dv,2013-03-11 04:35:00,
2013-03-11 00:40:00,54.9,44.7,30.06,ENE,75,1.6,1.6,60,0.00,,,0.00,dv,2013-03-11 04:40:00,
2013-03-11 00:45:00,54.8,44.6,30.06,East,83,1.6,1.6,60,0.00,,,0.00,dv,2013-03-11 04:45:00,
2013-03-11 00:55:00,54.6,44.7,30.07,East,84,1.6,1.6,61,0.00,,,0.00,dv,2013-03-11 04:55:00,
2013-03-11 01:00:00,54.5,44.9,30.07,East,84,1.6,1.6,62,0.00,,,0.00,dv,2013-03-11 05:00:00,
2013-03-11 01:05:00,54.4,44.8,30.07,East,84,0.0,0.0,62,0.00,,,0.00,dv,2013-03-11 05:05:00,
2013-03-11 01:10:00,54.2,45.0,30.07,East,84,1.6,1.6,63,0.00,,,0.00,dv,2013-03-11 05:10:00,
2013-03-11 01:15:00,54.2,45.0,30.07,East,84,0.0,0.0,63,0.00,,,0.00,dv,2013-03-11 05:15:00,
2013-03-11 01:20:00,54.1,45.2,30.07,East,84,1.6,1.6,64,0.00,,,0.00,dv,2013-03-11 05:20:00,
2013-03-11 01:25:00,54.0,45.1,30.07,East,83,1.6,1.6,64,0.00,,,0.00,dv,2013-03-11 05:25:00,
2013-03-11 01:30:00,54.0,45.1,30.06,East,84,1.6,1.6,64,0.00,,,0.00,dv,2013-03-11 05:30:00,
2013-03-11 01:35:00,53.9,45.3,30.06,East,84,0.0,0.0,65,0.00,,,0.00,dv,2013-03-11 05:35:00,
2013-03-11 01:40:00,53.7,45.1,30.06,East,84,0.0,0.0,65,0.00,,,0.00,dv,2013-03-11 05:40:00,
2013-03-11 01:45:00,53.6,45.3,30.06,East,84,1.6,1.6,66,0.00,,,0.00,dv,2013-03-11 05:45:00,
2013-03-11 01:50:00,53.4,45.1,30.06,East,84,1.6,1.6,66,0.00,,,0.00,dv,2013-03-11 05:50:00,
2013-03-11 01:55:00,53.3,45.3,30.06,East,84,0.0,0.0,67,0.00,,,0.00,dv,2013-03-11 05:55:00,
2013-03-11 02:00:00,53.2,45.2,30.06,East,84,1.6,1.6,67,0.00,,,0.00,dv,2013-03-11 06:00:00,
2013-03-11 02:05:00,53.1,45.4,30.05,East,84,3.2,3.2,68,0.00,,,0.00,dv,2013-03-11 06:05:00,
2013-03-11 02:10:00,53.1,45.4,30.05,East,84,0.0,0.0,68,0.00,,,0.00,dv,2013-03-11 06:10:00,
2013-03-11 02:15:00,52.9,45.5,30.05,East,84,1.6,1.6,69,0.00,,,0.00,dv,2013-03-11 06:15:00,
2013-03-11 02:20:00,52.9,45.5,30.05,East,84,1.6,1.6,69,0.00,,,0.00,dv,2013-03-11 06:20:00,
2013-03-11 02:25:00,52.8,45.4,30.04,East,84,1.6,1.6,69,0.00,,,0.00,dv,2013-03-11 06:25:00,
2013-03-11 02:30:00,52.7,45.6,30.05,East,84,1.6,1.6,70,0.00,,,0.00,dv,2013-03-11 06:30:00,
2013-03-11 02:35:00,52.6,45.8,30.04,East,84,3.2,3.2,71,0.00,,,0.00,dv,2013-03-11 06:35:00,
2013-03-11 02:40:00,52.5,45.7,30.04,East,84,1.6,1.6,71,0.00,,,0.00,dv,2013-03-11 06:40:00,
2013-03-11 02:45:00,52.4,45.9,30.05,East,84,0.0,0.0,72,0.00,,,0.00,dv,2013-03-11 06:45:00,
2013-03-11 02:50:00,52.3,46.0,30.04,East,84,0.0,0.0,73,0.00,,,0.00,dv,2013-03-11 06:50:00,
2013-03-11 02:55:00,52.2,45.9,30.05,East,84,0.0,0.0,73,0.00,,,0.00,dv,2013-03-11 06:55:00,
2013-03-11 03:00:00,52.2,46.2,30.04,East,84,1.6,1.6,74,0.00,,,0.00,dv,2013-03-11 07:00:00,
2013-03-11 03:05:00,52.2,46.2,30.04,East,84,0.0,0.0,74,0.00,,,0.00,dv,2013-03-11 07:05:00,
2013-03-11 03:10:00,52.2,46.5,30.05,East,84,1.6,1.6,75,0.00,,,0.00,dv,2013-03-11 07:10:00,
2013-03-11 03:15:00,52.3,46.6,30.04,East,84,1.6,1.6,75,0.00,,,0.00,dv,2013-03-11 07:15:00,
2013-03-11 03:20:00,52.3,46.6,30.04,East,84,1.6,1.6,75,0.00,,,0.00,dv,2013-03-11 07:20:00,
2013-03-11 03:25:00,52.4,46.9,30.04,East,84,1.6,1.6,76,0.00,,,0.00,dv,2013-03-11 07:25:00,
2013-03-11 03:30:00,52.5,47.0,30.03,East,84,3.2,3.2,76,0.00,,,0.00,dv,2013-03-11 07:30:00,
2013-03-11 03:35:00,52.4,46.9,30.03,South,179,1.6,1.6,76,0.00,,,0.00,dv,2013-03-11 07:35:00,
2013-03-11 03:40:00,52.4,46.9,30.03,ESE,104,3.2,3.2,76,0.00,,,0.00,dv,2013-03-11 07:40:00,
2013-03-11 03:45:00,52.4,47.2,30.02,East,79,3.2,3.2,77,0.00,,,0.00,dv,2013-03-11 07:45:00,
2013-03-11 03:50:00,52.4,47.2,30.02,East,81,3.2,3.2,77,0.00,,,0.00,dv,2013-03-11 07:50:00,
2013-03-11 03:55:00,52.4,47.2,30.01,East,83,3.2,3.2,77,0.00,,,0.00,dv,2013-03-11 07:55:00,
2013-03-11 04:00:00,52.3,47.3,30.01,ENE,70,4.8,4.8,78,0.00,,,0.00,dv,2013-03-11 08:00:00,
2013-03-11 04:05:00,52.3,47.3,30.00,ENE,78,4.8,4.8,78,0.00,,,0.00,dv,2013-03-11 08:05:00,
2013-03-11 04:10:00,52.3,47.3,30.00,ENE,78,3.2,3.2,78,0.00,,,0.00,dv,2013-03-11 08:10:00,
2013-03-11 04:15:00,52.3,47.3,30.01,East,81,6.4,6.4,78,0.00,,,0.00,dv,2013-03-11 08:15:00,
2013-03-11 04:20:00,52.3,47.6,30.00,East,81,1.6,1.6,79,0.00,,,0.00,dv,2013-03-11 08:20:00,
2013-03-11 04:25:00,52.3,47.6,30.01,East,81,3.2,3.2,79,0.00,,,0.00,dv,2013-03-11 08:25:00,
2013-03-11 04:30:00,52.3,47.6,30.00,ESE,118,3.2,3.2,79,0.00,,,0.00,dv,2013-03-11 08:30:00,
2013-03-11 04:35:00,52.2,47.5,30.00,ESE,115,1.6,1.6,79,0.00,,,0.00,dv,2013-03-11 08:35:00,
2013-03-11 04:40:00,52.2,47.7,30.00,ENE,64,3.2,3.2,80,0.00,,,0.00,dv,2013-03-11 08:40:00,
2013-03-11 04:45:00,52.1,47.6,29.99,South,174,3.2,3.2,80,0.00,,,0.00,dv,2013-03-11 08:45:00,
2013-03-11 04:50:00,52.1,47.6,29.99,ENE,69,4.8,4.8,80,0.00,,,0.00,dv,2013-03-11 08:50:00,
2013-03-11 04:55:00,52.1,47.9,29.99,East,80,6.4,6.4,81,0.00,,,0.00,dv,2013-03-11 08:55:00,
2013-03-11 05:00:00,52.0,47.8,29.99,ENE,66,6.4,6.4,81,0.00,,,0.00,dv,2013-03-11 09:00:00,
2013-03-11 05:05:00,52.0,47.8,29.99,East,85,3.2,3.2,81,0.00,,,0.00,dv,2013-03-11 09:05:00,
2013-03-11 05:10:00,51.9,47.7,29.99,East,79,4.8,4.8,81,0.00,,,0.00,dv,2013-03-11 09:10:00,
2013-03-11 05:15:00,51.9,47.9,29.99,East,79,1.6,1.6,82,0.00,,,0.00,dv,2013-03-11 09:15:00,
2013-03-11 05:20:00,51.8,47.8,29.99,ESE,119,3.2,3.2,82,0.00,,,0.00,dv,2013-03-11 09:20:00,
2013-03-11 05:25:00,51.8,47.8,29.99,ESE,104,1.6,1.6,82,0.00,,,0.00,dv,2013-03-11 09:25:00,
2013-03-11 05:30:00,51.8,47.8,29.99,ESE,104,1.6,1.6,82,0.00,,,0.00,dv,2013-03-11 09:30:00,
2013-03-11 05:35:00,51.8,47.8,29.99,ESE,104,1.6,1.6,82,0.00,,,0.00,dv,2013-03-11 09:35:00,
2013-03-11 05:40:00,51.7,47.7,29.99,ESE,104,1.6,1.6,82,0.00,,,0.00,dv,2013-03-11 09:40:00,
2013-03-11 05:45:00,51.7,47.7,29.99,ESE,118,3.2,3.2,82,0.00,,,0.00,dv,2013-03-11 09:45:00,
2013-03-11 05:50:00,51.6,47.6,29.99,ESE,115,3.2,3.2,82,0.00,,,0.00,dv,2013-03-11 09:50:00,
2013-03-11 05:55:00,51.6,47.6,29.99,ESE,104,3.2,3.2,82,0.00,,,0.00,dv,2013-03-11 09:55:00,
2013-03-11 06:00:00,51.6,47.9,30.00,ESE,104,0.0,0.0,83,0.00,,,0.00,dv,2013-03-11 10:00:00,
2013-03-11 06:05:00,51.5,47.8,30.00,ESE,104,1.6,1.6,83,0.00,,,0.00,dv,2013-03-11 10:05:00,
2013-03-11 06:10:00,51.5,47.8,30.00,ESE,104,1.6,1.6,83,0.00,,,0.00,dv,2013-03-11 10:10:00,
2013-03-11 06:15:00,51.5,47.8,30.00,ESE,104,3.2,3.2,83,0.00,,,0.00,dv,2013-03-11 10:15:00,
2013-03-11 06:20:00,51.5,47.8,30.00,ESE,104,3.2,3.2,83,0.00,,,0.00,dv,2013-03-11 10:20:00,
2013-03-11 06:25:00,51.5,47.8,30.00,ESE,104,3.2,3.2,83,0.00,,,0.00,dv,2013-03-11 10:25:00,
2013-03-11 06:30:00,51.5,47.8,30.01,ESE,105,1.6,1.6,83,0.00,,,0.00,dv,2013-03-11 10:30:00,
2013-03-11 06:35:00,51.4,47.7,30.01,SE,135,3.2,3.2,83,0.00,,,0.00,dv,2013-03-11 10:35:00,
2013-03-11 06:40:00,51.4,47.7,30.01,East,92,4.8,4.8,83,0.00,,,0.00,dv,2013-03-11 10:40:00,
2013-03-11 06:45:00,51.3,47.6,30.01,East,92,3.2,3.2,83,0.00,,,0.00,dv,2013-03-11 10:45:00,
2013-03-11 06:50:00,51.3,47.6,30.01,ENE,58,4.8,4.8,83,0.00,,,0.00,dv,2013-03-11 10:50:00,
2013-03-11 06:55:00,51.2,47.5,30.01,ENE,58,3.2,3.2,83,0.00,,,0.00,dv,2013-03-11 10:55:00,
2013-03-11 07:00:00,51.2,47.5,30.01,ENE,58,3.2,3.2,83,0.00,,,0.00,dv,2013-03-11 11:00:00,
2013-03-11 07:05:00,51.3,47.6,30.01,ENE,58,1.6,1.6,83,0.00,,,0.00,dv,2013-03-11 11:05:00,
2013-03-11 07:10:00,51.3,47.6,30.01,ENE,58,1.6,1.6,83,0.00,,,0.00,dv,2013-03-11 11:10:00,
2013-03-11 07:15:00,51.2,47.7,30.01,ENE,58,1.6,1.6,84,0.00,,,0.00,dv,2013-03-11 11:15:00,
2013-03-11 07:20:00,51.3,47.8,30.01,ENE,58,3.2,3.2,84,0.00,,,0.00,dv,2013-03-11 11:20:00,
2013-03-11 07:25:00,51.2,47.7,30.01,ENE,58,1.6,1.6,84,0.00,,,0.00,dv,2013-03-11 11:25:00,
2013-03-11 07:30:00,51.3,47.8,30.01,ENE,58,0.0,0.0,84,0.00,,,0.00,dv,2013-03-11 11:30:00,
2013-03-11 07:35:00,51.3,47.8,30.01,ENE,58,3.2,3.2,84,0.00,,,0.00,dv,2013-03-11 11:35:00,
2013-03-11 07:40:00,51.3,47.8,30.00,ENE,58,3.2,3.2,84,0.00,,,0.00,dv,2013-03-11 11:40:00,
2013-03-11 07:45:00,51.4,47.9,30.00,ENE,58,0.0,0.0,84,0.00,,,0.00,dv,2013-03-11 11:45:00,
2013-03-11 07:50:00,51.3,47.8,30.00,ENE,58,0.0,0.0,84,0.00,,,0.00,dv,2013-03-11 11:50:00,
2013-03-11 07:55:00,51.3,47.8,30.01,ENE,59,3.2,3.2,84,0.00,,,0.00,dv,2013-03-11 11:55:00,
2013-03-11 08:00:00,51.4,47.9,29.99,ENE,59,3.2,3.2,84,0.00,,,0.00,dv,2013-03-11 12:00:00,
2013-03-11 08:05:00,51.4,47.9,29.99,ENE,59,3.2,3.2,84,0.00,,,0.00,dv,2013-03-11 12:05:00,
2013-03-11 08:10:00,51.4,47.9,29.99,ENE,60,3.2,3.2,84,0.00,,,0.00,dv,2013-03-11 12:10:00,
2013-03-11 08:20:00,51.4,47.9,30.00,ENE,69,1.6,1.6,84,0.00,,,0.00,dv,2013-03-11 12:20:00,
2013-03-11 08:25:00,51.4,47.9,30.00,ENE,69,3.2,3.2,84,0.00,,,0.00,dv,2013-03-11 12:25:00,
2013-03-11 08:35:00,51.5,48.0,30.00,SSE,151,1.6,1.6,84,0.00,,,0.00,dv,2013-03-11 12:35:00,
2013-03-11 08:40:00,51.5,48.0,29.99,SSE,151,3.2,3.2,84,0.00,,,0.00,dv,2013-03-11 12:40:00,
2013-03-11 08:45:00,51.5,48.0,29.98,ESE,113,3.2,3.2,84,0.00,,,0.00,dv,2013-03-11 12:45:00,
2013-03-11 08:50:00,51.5,48.0,29.98,ESE,114,1.6,1.6,84,0.00,,,0.00,dv,2013-03-11 12:50:00,
2013-03-11 08:55:00,51.6,48.1,29.98,East,89,1.6,1.6,84,0.00,,,0.00,dv,2013-03-11 12:55:00,
2013-03-11 09:00:00,51.7,48.2,29.99,East,91,1.6,1.6,84,0.00,,,0.00,dv,2013-03-11 13:00:00,
2013-03-11 09:05:00,51.8,48.3,29.98,East,91,1.6,1.6,84,0.00,,,0.00,dv,2013-03-11 13:05:00,
2013-03-11 09:10:00,51.8,48.3,29.98,East,91,3.2,3.2,84,0.00,,,0.00,dv,2013-03-11 13:10:00,
2013-03-11 09:15:00,51.9,48.4,29.98,East,91,1.6,1.6,84,0.00,,,0.00,dv,2013-03-11 13:15:00,
2013-03-11 09:20:00,51.9,48.4,29.99,ESE,109,3.2,3.2,84,0.00,,,0.00,dv,2013-03-11 13:20:00,
2013-03-11 09:25:00,52.0,48.5,29.98,East,79,4.8,4.8,84,0.00,,,0.00,dv,2013-03-11 13:25:00,
2013-03-11 09:30:00,52.1,48.6,29.98,ENE,69,1.6,1.6,84,0.00,,,0.00,dv,2013-03-11 13:30:00,
2013-03-11 09:40:00,52.2,48.7,29.98,ESE,121,3.2,3.2,84,0.00,,,0.00,dv,2013-03-11 13:40:00,
2013-03-11 09:45:00,52.4,48.7,29.98,ENE,78,3.2,3.2,83,0.00,,,0.00,dv,2013-03-11 13:45:00,
2013-03-11 09:50:00,52.5,48.8,29.98,SSE,147,4.8,4.8,83,0.00,,,0.00,dv,2013-03-11 13:50:00,
2013-03-11 09:55:00,52.6,48.8,29.98,ENE,74,3.2,3.2,83,0.00,,,0.00,dv,2013-03-11 13:55:00,
2013-03-11 10:00:00,52.8,49.3,29.98,East,82,1.6,1.6,84,0.00,,,0.00,dv,2013-03-11 14:00:00,
2013-03-11 10:05:00,52.9,49.1,29.98,NNE,17,4.8,4.8,83,0.00,,,0.00,dv,2013-03-11 14:05:00,
2013-03-11 10:10:00,53.0,49.2,29.98,NE,38,1.6,1.6,83,0.00,,,0.00,dv,2013-03-11 14:10:00,
2013-03-11 10:15:00,53.1,49.3,29.98,NE,47,4.8,4.8,83,0.00,,,0.00,dv,2013-03-11 14:15:00,
2013-03-11 10:20:00,53.3,49.5,29.98,SSE,159,3.2,3.2,83,0.00,,,0.00,dv,2013-03-11 14:20:00,
2013-03-11 10:25:00,53.3,49.3,29.97,NE,54,6.4,6.4,82,0.00,,,0.00,dv,2013-03-11 14:25:00,
2013-03-11 10:30:00,53.4,49.4,29.96,South,175,1.6,1.6,82,0.00,,,0.00,dv,2013-03-11 14:30:00,
2013-03-11 10:35:00,53.5,49.5,29.97,SSW,213,3.2,3.2,82,0.00,,,0.00,dv,2013-03-11 14:35:00,
2013-03-11 10:45:00,53.6,49.6,29.97,SE,141,3.2,3.2,82,0.00,,,0.00,dv,2013-03-11 14:45:00,
2013-03-11 10:50:00,53.7,49.4,29.97,SSE,147,3.2,3.2,81,0.00,,,0.00,dv,2013-03-11 14:50:00,
2013-03-11 10:55:00,53.8,49.5,29.96,SSE,151,4.8,4.8,81,0.00,,,0.00,dv,2013-03-11 14:55:00,
2013-03-11 11:00:00,53.8,49.5,29.95,ENE,61,4.8,4.8,81,0.00,,,0.00,dv,2013-03-11 15:00:00,
2013-03-11 11:05:00,53.9,49.6,29.95,WSW,245,3.2,3.2,81,0.00,,,0.00,dv,2013-03-11 15:05:00,
2013-03-11 11:10:00,54.0,49.7,29.95,West,268,1.6,1.6,81,0.00,,,0.00,dv,2013-03-11 15:10:00,
2013-03-11 11:15:00,54.1,49.8,29.95,West,271,3.2,3.2,81,0.00,,,0.00,dv,2013-03-11 15:15:00,
2013-03-11 11:20:00,54.2,49.9,29.94,NE,48,3.2,3.2,81,0.00,,,0.00,dv,2013-03-11 15:20:00,
2013-03-11 11:25:00,54.3,49.8,29.94,East,99,3.2,3.2,80,0.00,,,0.00,dv,2013-03-11 15:25:00,
2013-03-11 11:30:00,54.4,49.9,29.94,SSE,152,3.2,3.2,80,0.00,,,0.00,dv,2013-03-11 15:30:00,
2013-03-11 11:35:00,54.5,50.0,29.94,SE,139,3.2,3.2,80,0.00,,,0.00,dv,2013-03-11 15:35:00,
2013-03-11 11:40:00,54.6,50.1,29.94,SE,139,1.6,1.6,80,0.00,,,0.00,dv,2013-03-11 15:40:00,
2013-03-11 11:45:00,54.7,50.2,29.95,SE,131,0.0,0.0,80,0.00,,,0.00,dv,2013-03-11 15:45:00,
2013-03-11 11:50:00,54.9,50.1,29.95,ESE,122,1.6,1.6,79,0.00,,,0.00,dv,2013-03-11 15:50:00,
2013-03-11 11:55:00,55.1,50.5,29.95,ESE,118,1.6,1.6,80,0.00,,,0.00,dv,2013-03-11 15:55:00,
2013-03-11 12:05:00,55.8,51.0,29.93,SSE,151,4.8,4.8,79,0.00,,,0.00,dv,2013-03-11 16:05:00,
2013-03-11 12:10:00,56.0,51.2,29.93,ESE,105,1.6,1.6,79,0.00,,,0.00,dv,2013-03-11 16:10:00,
2013-03-11 12:15:00,56.2,51.1,29.93,South,169,4.8,4.8,78,0.00,,,0.00,dv,2013-03-11 16:15:00,
2013-03-11 12:20:00,56.3,51.2,29.93,SSE,154,3.2,3.2,78,0.00,,,0.00,dv,2013-03-11 16:20:00,
2013-03-11 12:25:00,56.4,51.3,29.93,South,171,1.6,1.6,78,0.00,,,0.00,dv,2013-03-11 16:25:00,
2013-03-11 12:30:00,56.7,51.6,29.93,SSE,151,1.6,1.6,78,0.00,,,0.00,dv,2013-03-11 16:30:00,
2013-03-11 12:35:00,56.9,51.8,29.92,SSE,150,1.6,1.6,78,0.00,,,0.00,dv,2013-03-11 16:35:00,
2013-03-11 12:40:00,57.0,51.9,29.92,East,101,3.2,3.2,78,0.00,,,0.00,dv,2013-03-11 16:40:00,
2013-03-11 12:45:00,57.2,52.1,29.92,NNW,341,1.6,1.6,78,0.00,,,0.00,dv,2013-03-11 16:45:00,
2013-03-11 12:50:00,57.4,52.3,29.91,East,87,3.2,3.2,78,0.00,,,0.00,dv,2013-03-11 16:50:00,
2013-03-11 12:55:00,57.7,52.3,29.90,SSE,156,3.2,3.2,77,0.00,,,0.00,dv,2013-03-11 16:55:00,
2013-03-11 13:00:00,57.8,52.1,29.89,East,94,3.2,3.2,76,0.00,,,0.00,dv,2013-03-11 17:00:00,
2013-03-11 13:05:00,57.7,52.0,29.89,ENE,68,8.1,8.1,76,0.00,,,0.00,dv,2013-03-11 17:05:00,
2013-03-11 13:10:00,57.9,52.5,29.87,ENE,62,1.6,1.6,77,0.00,,,0.00,dv,2013-03-11 17:10:00,
2013-03-11 13:15:00,58.0,52.3,29.87,ENE,63,6.4,6.4,76,0.00,,,0.00,dv,2013-03-11 17:15:00,
2013-03-11 13:20:00,58.3,52.6,29.87,ESE,104,4.8,4.8,76,0.00,,,0.00,dv,2013-03-11 17:20:00,
2013-03-11 13:25:00,58.6,52.9,29.87,ENE,64,4.8,4.8,76,0.00,,,0.00,dv,2013-03-11 17:25:00,
2013-03-11 13:30:00,59.0,53.0,29.86,SSW,205,1.6,1.6,75,0.00,,,0.00,dv,2013-03-11 17:30:00,
2013-03-11 13:35:00,59.5,52.9,29.86,East,89,4.8,4.8,73,0.00,,,0.00,dv,2013-03-11 17:35:00,
2013-03-11 13:40:00,59.8,53.2,29.86,SSE,168,3.2,3.2,73,0.00,,,0.00,dv,2013-03-11 17:40:00,
2013-03-11 13:45:00,60.0,53.4,29.86,East,96,3.2,3.2,73,0.00,,,0.00,dv,2013-03-11 17:45:00,
2013-03-11 13:50:00,60.2,53.3,29.86,ENE,71,6.4,6.4,72,0.00,,,0.00,dv,2013-03-11 17:50:00,
2013-03-11 13:55:00,60.4,53.5,29.85,NE,49,3.2,3.2,72,0.00,,,0.00,dv,2013-03-11 17:55:00,
2013-03-11 14:00:00,60.5,53.6,29.84,East,88,4.8,4.8,72,0.00,,,0.00,dv,2013-03-11 18:00:00,
2013-03-11 14:05:00,60.6,53.4,29.83,East,82,6.4,6.4,71,0.00,,,0.00,dv,2013-03-11 18:05:00,
2013-03-11 14:10:00,60.4,53.2,29.82,SE,142,8.1,8.1,71,0.00,,,0.00,dv,2013-03-11 18:10:00,
2013-03-11 14:15:00,60.3,53.1,29.83,ENE,65,1.6,1.6,71,0.00,,,0.00,dv,2013-03-11 18:15:00,
2013-03-11 14:20:00,60.3,53.1,29.84,SSE,162,6.4,6.4,71,0.00,,,0.00,dv,2013-03-11 18:20:00,
2013-03-11 14:25:00,60.2,53.3,29.84,NE,56,6.4,6.4,72,0.00,,,0.00,dv,2013-03-11 18:25:00,
2013-03-11 14:30:00,60.1,53.2,29.83,ENE,76,6.4,6.4,72,0.00,,,0.00,dv,2013-03-11 18:30:00,
2013-03-11 14:35:00,60.1,53.2,29.82,ENE,66,4.8,4.8,72,0.00,,,0.00,dv,2013-03-11 18:35:00,
2013-03-11 14:40:00,60.1,53.2,29.82,SE,127,1.6,1.6,72,0.00,,,0.00,dv,2013-03-11 18:40:00,
2013-03-11 14:45:00,60.2,53.3,29.81,SE,132,1.6,1.6,72,0.00,,,0.00,dv,2013-03-11 18:45:00,
2013-03-11 14:50:00,60.2,53.3,29.82,SSE,158,3.2,3.2,72,0.00,,,0.00,dv,2013-03-11 18:50:00,
2013-03-11 14:55:00,60.1,53.2,29.79,East,93,1.6,1.6,72,0.00,,,0.00,dv,2013-03-11 18:55:00,
2013-03-11 15:00:00,60.1,53.2,29.79,ESE,102,4.8,4.8,72,0.00,,,0.00,dv,2013-03-11 19:00:00,
2013-03-11 15:05:00,60.0,53.1,29.79,East,83,4.8,4.8,72,0.00,,,0.00,dv,2013-03-11 19:05:00,
2013-03-11 15:10:00,60.0,53.1,29.79,ENE,78,4.8,4.8,72,0.00,,,0.00,dv,2013-03-11 19:10:00,
2013-03-11 15:15:00,60.0,53.4,29.80,East,79,0.0,0.0,73,0.00,,,0.00,dv,2013-03-11 19:15:00,
2013-03-11 15:20:00,59.9,53.3,29.80,East,79,0.0,0.0,73,0.00,,,0.00,dv,2013-03-11 19:20:00,
2013-03-11 15:25:00,59.8,53.2,29.80,ENE,62,3.2,3.2,73,0.00,,,0.00,dv,2013-03-11 19:25:00,
2013-03-11 15:30:00,59.7,53.7,29.78,ENE,62,3.2,3.2,75,0.00,,,0.00,dv,2013-03-11 19:30:00,
2013-03-11 15:35:00,59.6,54.1,29.78,SSE,156,1.6,1.6,77,0.00,,,0.00,dv,2013-03-11 19:35:00,
2013-03-11 15:40:00,59.4,54.2,29.79,ENE,61,3.2,3.2,78,0.00,,,0.00,dv,2013-03-11 19:40:00,
2013-03-11 15:45:00,59.2,54.0,29.79,East,91,1.6,1.6,78,0.00,,,0.00,dv,2013-03-11 19:45:00,
2013-03-11 15:50:00,59.0,54.1,29.80,SSW,194,1.6,1.6,79,0.00,,,0.00,dv,2013-03-11 19:50:00,
2013-03-11 15:55:00,58.9,54.0,29.77,ENE,74,3.2,3.2,79,0.00,,,0.00,dv,2013-03-11 19:55:00,
2013-03-11 16:00:00,58.8,54.1,29.78,ENE,76,1.6,1.6,80,0.00,,,0.00,dv,2013-03-11 20:00:00,
2013-03-11 16:05:00,58.7,54.5,29.77,ENE,76,0.0,0.0,82,0.00,,,0.00,dv,2013-03-11 20:05:00,
2013-03-11 16:10:00,58.5,54.1,29.78,ENE,76,0.0,0.0,81,0.01,,,0.01,dv,2013-03-11 20:10:00,
2013-03-11 16:15:00,58.4,54.5,29.78,ENE,76,0.0,0.0,83,0.02,,,0.02,dv,2013-03-11 20:15:00,
2013-03-11 16:20:00,58.2,54.6,29.77,ENE,76,1.6,1.6,84,0.05,,,0.05,dv,2013-03-11 20:20:00,
2013-03-11 16:25:00,58.0,54.6,29.76,ENE,76,1.6,1.6,85,0.06,,,0.06,dv,2013-03-11 20:25:00,
2013-03-11 16:30:00,57.8,54.6,29.76,ENE,76,0.0,0.0,86,0.06,,,0.06,dv,2013-03-11 20:30:00,
2013-03-11 16:35:00,57.7,54.8,29.76,ENE,76,1.6,1.6,87,0.07,,,0.07,dv,2013-03-11 20:35:00,
2013-03-11 16:40:00,57.5,54.8,29.75,ENE,76,0.0,0.0,88,0.07,,,0.07,dv,2013-03-11 20:40:00,
2013-03-11 16:45:00,57.4,54.7,29.75,ENE,76,0.0,0.0,88,0.08,,,0.08,dv,2013-03-11 20:45:00,
2013-03-11 16:50:00,57.4,55.0,29.75,ENE,76,1.6,1.6,89,0.08,,,0.08,dv,2013-03-11 20:50:00,
2013-03-11 16:55:00,57.4,55.0,29.75,ENE,76,0.0,0.0,89,0.09,,,0.09,dv,2013-03-11 20:55:00,
2013-03-11 17:00:00,57.4,55.2,29.73,ENE,76,0.0,0.0,90,0.10,,,0.10,dv,2013-03-11 21:00:00,
2013-03-11 17:05:00,57.3,55.1,29.74,ENE,76,0.0,0.0,90,0.11,,,0.11,dv,2013-03-11 21:05:00,
2013-03-11 17:10:00,57.3,55.1,29.74,ENE,76,3.2,3.2,90,0.10,,,0.11,dv,2013-03-11 21:10:00,
2013-03-11 17:15:00,57.3,55.1,29.77,WSW,258,9.7,9.7,90,0.09,,,0.11,dv,2013-03-11 21:15:00,
2013-03-11 17:20:00,57.0,54.8,29.78,SW,217,9.7,9.7,90,0.07,,,0.12,dv,2013-03-11 21:20:00,
2013-03-11 17:25:00,56.7,54.7,29.78,WSW,248,12.9,12.9,91,0.15,,,0.21,dv,2013-03-11 21:25:00,
2013-03-11 17:30:00,56.4,54.4,29.77,WSW,252,9.7,9.7,91,0.22,,,0.28,dv,2013-03-11 21:30:00,
2013-03-11 17:35:00,56.3,54.3,29.77,West,272,6.4,6.4,91,0.24,,,0.31,dv,2013-03-11 21:35:00,
2013-03-11 17:40:00,56.0,54.0,29.78,West,272,11.3,11.3,91,0.25,,,0.32,dv,2013-03-11 21:40:00,
2013-03-11 17:45:00,55.6,53.7,29.79,West,260,6.4,6.4,91,0.26,,,0.34,dv,2013-03-11 21:45:00,
2013-03-11 17:50:00,55.5,53.6,29.77,West,268,8.1,8.1,91,0.28,,,0.36,dv,2013-03-11 21:50:00,
2013-03-11 17:55:00,55.1,53.2,29.79,NW,309,9.7,9.7,91,0.28,,,0.37,dv,2013-03-11 21:55:00,
2013-03-11 18:00:00,55.0,53.3,29.80,West,271,9.7,9.7,92,0.28,,,0.38,dv,2013-03-11 22:00:00,
2013-03-11 18:05:00,54.8,53.1,29.80,WSW,254,9.7,9.7,92,0.29,,,0.40,dv,2013-03-11 22:05:00,
2013-03-11 18:10:00,54.5,52.8,29.80,WSW,248,9.7,9.7,92,0.31,,,0.42,dv,2013-03-11 22:10:00,
2013-03-11 18:15:00,54.5,52.8,29.80,WSW,253,4.8,4.8,92,0.33,,,0.44,dv,2013-03-11 22:15:00,
2013-03-11 18:20:00,54.4,52.7,29.81,WSW,253,1.6,1.6,92,0.34,,,0.46,dv,2013-03-11 22:20:00,
2013-03-11 18:25:00,54.3,52.6,29.80,WSW,253,1.6,1.6,92,0.27,,,0.48,dv,2013-03-11 22:25:00,
2013-03-11 18:30:00,54.4,52.9,29.79,WSW,254,0.0,0.0,93,0.21,,,0.49,dv,2013-03-11 22:30:00,
2013-03-11 18:35:00,54.2,52.7,29.81,WSW,253,1.6,1.6,93,0.20,,,0.51,dv,2013-03-11 22:35:00,
2013-03-11 18:40:00,54.2,52.7,29.80,WSW,253,1.6,1.6,93,0.21,,,0.53,dv,2013-03-11 22:40:00,
2013-03-11 18:45:00,54.2,52.7,29.79,WSW,254,1.6,1.6,93,0.21,,,0.55,dv,2013-03-11 22:45:00,
2013-03-11 18:50:00,54.1,52.6,29.80,WSW,254,1.6,1.6,93,0.20,,,0.56,dv,2013-03-11 22:50:00,
2013-03-11 18:55:00,54.1,52.6,29.80,WSW,254,1.6,1.6,93,0.21,,,0.58,dv,2013-03-11 22:55:00,
2013-03-11 19:00:00,54.0,52.5,29.78,WSW,254,4.8,4.8,93,0.22,,,0.60,dv,2013-03-11 23:00:00,
2013-03-11 19:05:00,53.9,52.4,29.79,WSW,254,0.0,0.0,93,0.22,,,0.62,dv,2013-03-11 23:05:00,
2013-03-11 19:10:00,53.8,52.5,29.80,WSW,254,0.0,0.0,94,0.21,,,0.63,dv,2013-03-11 23:10:00,
2013-03-11 19:15:00,53.7,52.4,29.80,WSW,254,3.2,3.2,94,0.21,,,0.65,dv,2013-03-11 23:15:00,
2013-03-11 19:20:00,53.7,52.4,29.79,SW,225,3.2,3.2,94,0.21,,,0.67,dv,2013-03-11 23:20:00,
2013-03-11 19:25:00,53.6,52.3,29.79,SW,226,0.0,0.0,94,0.21,,,0.69,dv,2013-03-11 23:25:00,
2013-03-11 19:30:00,53.7,52.4,29.78,SW,225,0.0,0.0,94,0.22,,,0.71,dv,2013-03-11 23:30:00,
2013-03-11 19:35:00,53.6,52.3,29.78,SW,225,0.0,0.0,94,0.22,,,0.73,dv,2013-03-11 23:35:00,
2013-03-11 19:40:00,53.6,52.3,29.77,SW,226,0.0,0.0,94,0.22,,,0.75,dv,2013-03-11 23:40:00,
2013-03-11 19:45:00,53.4,52.1,29.78,SW,226,0.0,0.0,94,0.21,,,0.76,dv,2013-03-11 23:45:00,
2013-03-11 19:55:00,53.4,52.1,29.77,SW,226,0.0,0.0,94,0.20,,,0.78,dv,2013-03-11 23:55:00,
2013-03-11 20:00:00,53.4,52.1,29.78,SW,226,0.0,0.0,94,0.19,,,0.79,dv,2013-03-12 00:00:00,
2013-03-11 20:05:00,53.4,52.1,29.77,SW,226,0.0,0.0,94,0.19,,,0.81,dv,2013-03-12 00:05:00,
2013-03-11 20:10:00,53.3,52.0,29.77,SW,226,0.0,0.0,94,0.19,,,0.82,dv,2013-03-12 00:10:00,
2013-03-11 20:15:00,53.2,51.9,29.77,SW,226,0.0,0.0,94,0.19,,,0.84,dv,2013-03-12 00:15:00,
2013-03-11 20:20:00,53.3,52.3,29.77,SW,225,0.0,0.0,95,0.18,,,0.85,dv,2013-03-12 00:20:00,
2013-03-11 20:25:00,53.3,52.0,29.78,SW,225,0.0,0.0,94,0.17,,,0.86,dv,2013-03-12 00:25:00,
2013-03-11 20:30:00,53.2,52.2,29.77,SW,225,0.0,0.0,95,0.17,,,0.88,dv,2013-03-12 00:30:00,
2013-03-11 20:35:00,53.3,52.3,29.76,SW,225,0.0,0.0,95,0.16,,,0.89,dv,2013-03-12 00:35:00,
2013-03-11 20:40:00,53.3,52.3,29.77,SW,225,1.6,1.6,95,0.14,,,0.89,dv,2013-03-12 00:40:00,
2013-03-11 20:45:00,53.3,52.3,29.76,SW,225,1.6,1.6,95,0.15,,,0.91,dv,2013-03-12 00:45:00,
2013-03-11 20:50:00,53.4,52.4,29.77,SW,225,0.0,0.0,95,0.15,,,0.92,dv,2013-03-12 00:50:00,
2013-03-11 20:55:00,53.3,52.3,29.77,SW,225,0.0,0.0,95,0.15,,,0.93,dv,2013-03-12 00:55:00,
2013-03-11 21:00:00,53.4,52.4,29.77,SW,225,0.0,0.0,95,0.16,,,0.95,dv,2013-03-12 01:00:00,
2013-03-11 21:05:00,53.4,52.4,29.77,SW,225,0.0,0.0,95,0.14,,,0.95,dv,2013-03-12 01:05:00,
2013-03-11 21:10:00,53.4,52.4,29.77,SW,225,1.6,1.6,95,0.15,,,0.97,dv,2013-03-12 01:10:00,
2013-03-11 21:15:00,53.4,52.6,29.76,SW,226,0.0,0.0,96,0.14,,,0.98,dv,2013-03-12 01:15:00,
2013-03-11 21:20:00,53.5,52.7,29.76,SW,225,0.0,0.0,96,0.14,,,0.99,dv,2013-03-12 01:20:00,
2013-03-11 21:25:00,53.5,52.7,29.76,SW,226,0.0,0.0,96,0.16,,,1.02,dv,2013-03-12 01:25:00,
2013-03-11 21:30:00,53.6,52.8,29.76,SW,226,0.0,0.0,96,0.17,,,1.05,dv,2013-03-12 01:30:00,
2013-03-11 21:35:00,53.5,52.7,29.74,SE,131,3.2,3.2,96,0.18,,,1.07,dv,2013-03-12 01:35:00,
2013-03-11 21:40:00,53.6,52.8,29.75,SE,131,0.0,0.0,96,0.19,,,1.08,dv,2013-03-12 01:40:00,
2013-03-11 21:45:00,53.8,53.0,29.74,SE,131,1.6,1.6,96,0.18,,,1.09,dv,2013-03-12 01:45:00,
2013-03-11 21:50:00,53.8,53.2,29.74,SE,131,1.6,1.6,97,0.18,,,1.10,dv,2013-03-12 01:50:00,
2013-03-11 21:55:00,53.8,53.2,29.74,SE,131,0.0,0.0,97,0.17,,,1.10,dv,2013-03-12 01:55:00,
2013-03-11 22:00:00,53.9,53.3,29.74,SE,131,1.6,1.6,97,0.15,,,1.10,dv,2013-03-12 02:00:00,
2013-03-11 22:05:00,53.8,53.2,29.75,SE,131,0.0,0.0,97,0.15,,,1.10,dv,2013-03-12 02:05:00,
2013-03-11 22:10:00,53.9,53.3,29.75,SE,131,0.0,0.0,97,0.14,,,1.11,dv,2013-03-12 02:10:00,
2013-03-11 22:15:00,53.9,53.3,29.75,SE,131,0.0,0.0,97,0.14,,,1.12,dv,2013-03-12 02:15:00,
2013-03-11 22:20:00,54.0,53.4,29.75,SE,131,0.0,0.0,97,0.14,,,1.13,dv,2013-03-12 02:20:00,
2013-03-11 22:25:00,54.1,53.5,29.74,SE,131,0.0,0.0,97,0.12,,,1.14,dv,2013-03-12 02:25:00,
2013-03-11 22:30:00,54.1,53.5,29.75,SE,131,0.0,0.0,97,0.09,,,1.14,dv,2013-03-12 02:30:00,
2013-03-11 22:35:00,54.1,53.5,29.75,SE,131,0.0,0.0,97,0.07,,,1.14,dv,2013-03-12 02:35:00,
2013-03-11 22:40:00,54.0,53.4,29.75,SE,131,0.0,0.0,97,0.07,,,1.15,dv,2013-03-12 02:40:00,
2013-03-11 22:45:00,54.1,53.5,29.75,SE,131,0.0,0.0,97,0.06,,,1.15,dv,2013-03-12 02:45:00,
2013-03-11 22:50:00,54.1,53.5,29.75,SE,131,0.0,0.0,97,0.05,,,1.15,dv,2013-03-12 02:50:00,
2013-03-11 22:55:00,54.1,53.5,29.75,SE,131,0.0,0.0,97,0.06,,,1.16,dv,2013-03-12 02:55:00,
2013-03-11 23:00:00,54.2,53.6,29.75,SE,131,0.0,0.0,97,0.06,,,1.16,dv,2013-03-12 03:00:00,
2013-03-11 23:05:00,54.1,53.5,29.75,SE,131,0.0,0.0,97,0.06,,,1.16,dv,2013-03-12 03:05:00,
2013-03-11 23:10:00,54.1,53.5,29.75,SE,131,0.0,0.0,97,0.05,,,1.16,dv,2013-03-12 03:10:00,
2013-03-11 23:15:00,54.1,53.5,29.75,SE,131,0.0,0.0,97,0.04,,,1.16,dv,2013-03-12 03:15:00,
2013-03-11 23:20:00,54.1,53.5,29.74,SE,140,3.2,3.2,97,0.03,,,1.16,dv,2013-03-12 03:20:00,
2013-03-11 23:25:00,54.0,53.4,29.75,West,269,6.4,6.4,97,0.03,,,1.17,dv,2013-03-12 03:25:00,
2013-03-11 23:30:00,54.0,53.4,29.75,WSW,255,6.4,6.4,97,0.03,,,1.17,dv,2013-03-12 03:30:00,
2013-03-11 23:35:00,54.0,53.4,29.76,SW,234,4.8,4.8,97,0.03,,,1.17,dv,2013-03-12 03:35:00,
2013-03-11 23:40:00,54.0,53.4,29.75,SW,234,6.4,6.4,97,0.03,,,1.18,dv,2013-03-12 03:40:00,
2013-03-11 23:45:00,53.8,53.2,29.75,NE,43,6.4,6.4,97,0.03,,,1.18,dv,2013-03-12 03:45:00,
2013-03-11 23:50:00,53.8,53.2,29.75,SSW,210,6.4,6.4,97,0.03,,,1.18,dv,2013-03-12 03:50:00,
2013-03-11 23:55:00,53.7,53.1,29.75,West,280,6.4,6.4,97,0.02,,,1.18,dv,2013-03-12 03:55:00,